Telford, United Kingdom
Current Conditions -  °F | °C
As of 8:50 PM on Monday 24 Nov 2014 (Local Time) from EGOS Reporting Station
Moderate Fog Moderate Fog  
Wind Chill: 32°   Ceiling: Unl
Heat Index: 32°   Visibility: 0.46mi
Dew Point: 32°   Wind: 2mph
Humidity: 100%   Direction: 210°SSW
Pressure: 30.33"   Gusts: NA
Location:  52.68°N, 2.45°W
Report Text: EGOS 242050Z AUTO 21002KT 0750 FG NCD 00/00 Q1027
Loading
Personal Weather Stations






























Interactive Weather Map New forecast layout! Learn more

10-Day Weather Forecast

Advertisements
Track Severe Weather on mobile